createdAt,value
2017-12-31T00:00:45.342Z,8.00
2017-12-31T00:02:00.777Z,7.97
2017-12-31T00:03:03.488Z,7.85
2017-12-31T00:04:05.954Z,8.02
2017-12-31T00:05:08.462Z,8.05
2017-12-31T00:06:11.010Z,8.75
2017-12-31T00:07:13.524Z,8.10
2017-12-31T00:08:15.995Z,8.15
2017-12-31T00:09:18.506Z,9.10
2017-12-31T00:10:21.050Z,10.63
2017-12-31T00:11:23.649Z,8.20
2017-12-31T00:12:26.194Z,9.23
2017-12-31T00:13:28.704Z,7.35
2017-12-31T00:14:31.228Z,9.38
2017-12-31T00:15:34.488Z,8.07
2017-12-31T00:16:37.016Z,8.70
2017-12-31T00:17:40.405Z,10.13
2017-12-31T00:18:42.894Z,8.93
2017-12-31T00:19:46.412Z,8.45
2017-12-31T00:20:49.086Z,7.37
2017-12-31T00:21:51.635Z,8.93
2017-12-31T00:22:54.190Z,7.87
2017-12-31T00:23:56.715Z,7.80
2017-12-31T00:25:00.743Z,8.95
2017-12-31T00:26:03.532Z,10.45
2017-12-31T00:27:06.980Z,8.18
2017-12-31T00:28:09.530Z,8.23
2017-12-31T00:29:12.194Z,8.82
2017-12-31T00:30:14.736Z,8.60
2017-12-31T00:31:17.230Z,8.15
2017-12-31T00:32:19.745Z,8.90
2017-12-31T00:33:22.537Z,9.05
2017-12-31T00:34:25.839Z,11.07
2017-12-31T00:35:29.864Z,8.60
2017-12-31T00:36:33.322Z,8.98
2017-12-31T00:37:35.897Z,8.65
2017-12-31T00:38:39.730Z,8.77
2017-12-31T00:39:43.063Z,8.18
2017-12-31T00:40:45.720Z,8.77
2017-12-31T00:41:48.221Z,9.45
2017-12-31T00:42:50.992Z,9.13
2017-12-31T00:43:53.518Z,8.93
2017-12-31T00:44:56.016Z,8.13
2017-12-31T00:45:58.581Z,10.02
2017-12-31T00:47:02.936Z,9.20
2017-12-31T00:48:05.441Z,9.75
2017-12-31T00:49:08.085Z,9.38
2017-12-31T00:50:10.693Z,9.95
2017-12-31T00:51:13.289Z,8.52
2017-12-31T00:52:16.445Z,8.77
2017-12-31T00:53:19.067Z,10.02
2017-12-31T00:54:22.367Z,9.23
2017-12-31T00:55:25.138Z,9.70
2017-12-31T00:56:27.807Z,8.80
2017-12-31T00:57:30.421Z,8.07
2017-12-31T00:58:33.101Z,8.40
2017-12-31T00:59:35.799Z,8.55
2017-12-31T01:00:38.320Z,10.25
2017-12-31T01:01:41.592Z,9.90
2017-12-31T01:02:44.075Z,8.30
2017-12-31T01:03:47.366Z,9.80
2017-12-31T01:04:50.727Z,8.75
2017-12-31T01:05:53.299Z,10.25
2017-12-31T01:06:55.808Z,10.13
2017-12-31T01:07:59.049Z,10.15
2017-12-31T01:09:01.535Z,9.48
2017-12-31T01:10:05.087Z,10.10
2017-12-31T01:11:07.589Z,8.77
2017-12-31T01:12:10.645Z,9.80
2017-12-31T01:13:13.133Z,10.07
2017-12-31T01:14:15.609Z,9.02
2017-12-31T01:15:18.124Z,11.40
2017-12-31T01:16:21.400Z,10.45
2017-12-31T01:17:24.153Z,10.07
2017-12-31T01:18:26.724Z,10.07
2017-12-31T01:19:29.213Z,9.63
2017-12-31T01:20:31.725Z,10.00
2017-12-31T01:21:34.224Z,8.88
2017-12-31T01:22:36.721Z,9.80
2017-12-31T01:23:39.210Z,11.55
2017-12-31T01:24:42.474Z,9.50
2017-12-31T01:25:44.961Z,9.10
2017-12-31T01:26:47.637Z,10.32
2017-12-31T01:27:50.152Z,9.07
2017-12-31T01:28:52.680Z,11.50
2017-12-31T01:29:55.197Z,9.65
2017-12-31T01:30:57.718Z,11.80
2017-12-31T01:32:00.206Z,12.45
2017-12-31T01:33:02.718Z,10.55
2017-12-31T01:34:05.261Z,9.38
2017-12-31T01:35:07.800Z,9.88
2017-12-31T01:36:10.456Z,9.90
2017-12-31T01:37:12.978Z,9.90
2017-12-31T01:38:15.496Z,8.65
2017-12-31T01:39:18.079Z,9.93
2017-12-31T01:40:21.455Z,8.77
2017-12-31T01:41:23.976Z,9.15
2017-12-31T01:42:27.243Z,8.68
2017-12-31T01:43:30.456Z,8.05
2017-12-31T01:44:32.937Z,7.87
2017-12-31T01:45:35.421Z,7.28
2017-12-31T01:46:37.993Z,5.43
2017-12-31T01:47:41.583Z,7.28
2017-12-31T01:48:55.791Z,7.85
2017-12-31T01:49:59.039Z,5.70
2017-12-31T01:51:14.413Z,5.05
2017-12-31T01:52:16.962Z,6.60
2017-12-31T01:53:19.543Z,5.87
2017-12-31T01:54:22.103Z,5.72
2017-12-31T01:55:25.354Z,6.60
2017-12-31T01:56:28.621Z,6.25
2017-12-31T01:57:31.122Z,5.53
2017-12-31T01:58:33.592Z,5.82
2017-12-31T01:59:36.072Z,5.85
2017-12-31T02:00:39.312Z,5.15
2017-12-31T02:01:41.827Z,5.93
2017-12-31T02:02:44.309Z,5.40
2017-12-31T02:03:47.575Z,7.00
2017-12-31T02:04:50.086Z,6.00
2017-12-31T02:05:53.500Z,5.72
2017-12-31T02:06:56.779Z,6.07
2017-12-31T02:07:59.243Z,7.82
2017-12-31T02:09:01.737Z,6.72
2017-12-31T02:10:04.974Z,7.32
2017-12-31T02:11:08.235Z,6.60
2017-12-31T02:12:10.758Z,6.32
2017-12-31T02:13:13.265Z,6.62
2017-12-31T02:14:15.799Z,6.50
2017-12-31T02:15:18.283Z,7.00
2017-12-31T02:16:20.764Z,6.65
2017-12-31T02:17:23.259Z,6.32
2017-12-31T02:18:25.774Z,8.98
2017-12-31T02:19:29.079Z,7.10
2017-12-31T02:20:31.573Z,7.85
2017-12-31T02:21:34.056Z,6.82
2017-12-31T02:22:36.540Z,9.63
2017-12-31T02:23:39.047Z,8.23
2017-12-31T02:24:41.532Z,7.47
2017-12-31T02:25:44.024Z,8.10
2017-12-31T02:26:46.511Z,7.32
2017-12-31T02:27:48.992Z,8.07
2017-12-31T02:28:51.490Z,8.15
2017-12-31T02:29:54.743Z,8.85
2017-12-31T02:30:57.547Z,7.45
2017-12-31T02:32:00.816Z,6.65
2017-12-31T02:33:04.239Z,8.27
2017-12-31T02:34:06.752Z,9.30
2017-12-31T02:35:09.281Z,8.10
2017-12-31T02:36:11.825Z,8.45
2017-12-31T02:37:14.361Z,7.95
2017-12-31T02:38:16.914Z,7.25
2017-12-31T02:39:19.418Z,7.60
2017-12-31T02:40:22.272Z,8.70
2017-12-31T02:41:25.519Z,7.47
2017-12-31T02:42:28.938Z,9.88
2017-12-31T02:43:31.419Z,8.70
2017-12-31T02:44:33.914Z,7.68
2017-12-31T02:45:36.402Z,8.20
2017-12-31T02:46:38.887Z,8.10
2017-12-31T02:47:41.377Z,8.60
2017-12-31T02:48:44.607Z,9.50
2017-12-31T02:49:47.088Z,8.38
2017-12-31T02:50:49.587Z,7.57
2017-12-31T02:51:52.058Z,7.32
2017-12-31T02:52:54.533Z,7.65
2017-12-31T02:53:57.043Z,6.47
2017-12-31T02:55:00.367Z,7.75
2017-12-31T02:56:02.859Z,7.72
2017-12-31T02:57:05.696Z,8.45
2017-12-31T02:58:08.165Z,8.52
2017-12-31T02:59:10.632Z,7.20
2017-12-31T03:00:13.110Z,9.30
2017-12-31T03:01:15.604Z,8.90
2017-12-31T03:02:18.869Z,7.62
2017-12-31T03:03:21.332Z,7.70
2017-12-31T03:04:23.802Z,8.52
2017-12-31T03:05:26.288Z,8.35
2017-12-31T03:06:28.801Z,9.00
2017-12-31T03:07:31.303Z,9.30
2017-12-31T03:08:33.785Z,8.60
2017-12-31T03:09:36.271Z,9.20
2017-12-31T03:10:38.759Z,8.63
2017-12-31T03:11:41.250Z,8.77
2017-12-31T03:12:43.741Z,8.82
2017-12-31T03:13:46.224Z,7.93
2017-12-31T03:14:48.695Z,8.25
2017-12-31T03:15:51.197Z,9.40
2017-12-31T03:16:53.677Z,7.32
2017-12-31T03:17:56.160Z,8.93
2017-12-31T03:18:59.411Z,8.90
2017-12-31T03:20:01.884Z,8.82
2017-12-31T03:21:05.135Z,8.95
2017-12-31T03:22:08.569Z,8.75
2017-12-31T03:23:11.799Z,9.30
2017-12-31T03:24:15.039Z,8.45
2017-12-31T03:25:17.535Z,8.20
2017-12-31T03:26:20.023Z,8.45
2017-12-31T03:27:23.270Z,9.57
2017-12-31T03:28:25.756Z,9.43
2017-12-31T03:29:28.273Z,9.07
2017-12-31T03:30:30.828Z,10.45
2017-12-31T03:31:34.079Z,9.13
2017-12-31T03:32:36.574Z,9.52
2017-12-31T03:33:39.048Z,8.50
2017-12-31T03:34:42.298Z,8.73
2017-12-31T03:35:44.785Z,10.25
2017-12-31T03:36:47.278Z,9.10
2017-12-31T03:37:50.538Z,10.10
2017-12-31T03:38:53.011Z,9.98
2017-12-31T03:39:55.489Z,8.95
2017-12-31T03:40:58.172Z,8.95
2017-12-31T03:42:00.649Z,11.00
2017-12-31T03:43:04.717Z,9.27
2017-12-31T03:44:07.198Z,9.95
2017-12-31T03:45:09.757Z,9.60
2017-12-31T03:46:12.241Z,10.95
2017-12-31T03:47:14.714Z,10.48
2017-12-31T03:48:17.220Z,10.18
2017-12-31T03:49:19.688Z,9.13
2017-12-31T03:50:22.949Z,10.20
2017-12-31T03:51:25.428Z,10.43
2017-12-31T03:52:27.910Z,9.77
2017-12-31T03:53:31.155Z,11.43
2017-12-31T03:54:33.638Z,11.00
2017-12-31T03:55:36.192Z,10.10
2017-12-31T03:56:38.672Z,10.18
2017-12-31T03:57:42.329Z,10.27
2017-12-31T03:58:44.830Z,10.75
2017-12-31T03:59:47.380Z,11.30
2017-12-31T04:00:49.858Z,10.95
2017-12-31T04:01:52.330Z,10.52
2017-12-31T04:02:54.824Z,10.43
2017-12-31T04:03:57.303Z,10.65
2017-12-31T04:04:59.798Z,13.23
2017-12-31T04:06:02.290Z,10.82
2017-12-31T04:07:05.553Z,10.50
2017-12-31T04:08:08.076Z,11.50
2017-12-31T04:09:10.551Z,12.10
2017-12-31T04:10:13.053Z,11.32
2017-12-31T04:11:15.517Z,11.52
2017-12-31T04:12:18.088Z,11.90
2017-12-31T04:13:20.566Z,13.35
2017-12-31T04:14:23.052Z,12.15
2017-12-31T04:15:26.299Z,11.30
2017-12-31T04:16:28.786Z,11.93
2017-12-31T04:17:31.271Z,11.80
2017-12-31T04:18:33.738Z,11.70
2017-12-31T04:19:36.225Z,11.70
2017-12-31T04:20:38.705Z,12.13
2017-12-31T04:21:41.973Z,12.32
2017-12-31T04:22:44.472Z,13.15
2017-12-31T04:23:48.580Z,12.32
2017-12-31T04:24:51.068Z,13.23
2017-12-31T04:25:53.544Z,12.52
2017-12-31T04:26:56.016Z,12.07
2017-12-31T04:27:58.512Z,11.02
2017-12-31T04:29:00.989Z,12.23
2017-12-31T04:30:03.472Z,11.12
2017-12-31T04:31:05.934Z,11.63
2017-12-31T04:32:09.225Z,11.05
2017-12-31T04:33:12.148Z,12.95
2017-12-31T04:34:14.617Z,11.55
2017-12-31T04:35:17.093Z,12.00
2017-12-31T04:36:19.605Z,10.43
2017-12-31T04:37:22.106Z,10.55
2017-12-31T04:38:25.371Z,12.23
2017-12-31T04:39:27.857Z,11.43
2017-12-31T04:40:30.338Z,9.27
2017-12-31T04:41:33.580Z,10.82
2017-12-31T04:42:36.077Z,11.00
2017-12-31T04:43:38.563Z,9.88
2017-12-31T04:44:41.822Z,10.30
2017-12-31T04:45:44.308Z,10.38
2017-12-31T04:46:46.789Z,10.40
2017-12-31T04:47:50.040Z,10.55
2017-12-31T04:48:52.604Z,10.77
2017-12-31T04:49:55.077Z,9.73
2017-12-31T04:50:57.552Z,10.15
2017-12-31T04:52:00.026Z,10.95
2017-12-31T04:53:02.510Z,11.20
2017-12-31T04:54:05.025Z,10.00
2017-12-31T04:55:07.493Z,10.43
2017-12-31T04:56:10.037Z,10.23
2017-12-31T04:57:12.508Z,9.13
2017-12-31T04:58:15.793Z,8.98
2017-12-31T04:59:19.102Z,9.02
2017-12-31T05:00:40.879Z,8.27
2017-12-31T05:01:43.377Z,8.95
2017-12-31T05:02:45.837Z,8.65
2017-12-31T05:03:48.327Z,9.38
2017-12-31T05:04:51.599Z,9.98
2017-12-31T05:05:54.090Z,9.68
2017-12-31T05:06:58.163Z,8.40
2017-12-31T05:08:00.620Z,9.15
2017-12-31T05:09:03.099Z,9.75
2017-12-31T05:10:05.590Z,10.20
2017-12-31T05:11:08.067Z,10.07
2017-12-31T05:12:11.327Z,9.57
2017-12-31T05:13:13.805Z,9.75
2017-12-31T05:14:17.223Z,9.20
2017-12-31T05:15:20.500Z,9.40
2017-12-31T05:16:22.969Z,8.73
2017-12-31T05:17:25.477Z,9.38
2017-12-31T05:18:27.953Z,9.50
2017-12-31T05:19:30.511Z,10.10
2017-12-31T05:20:33.030Z,8.88
2017-12-31T05:21:35.540Z,9.30
2017-12-31T05:22:38.786Z,8.77
2017-12-31T05:23:41.438Z,9.27
2017-12-31T05:24:43.919Z,9.60
2017-12-31T05:25:46.382Z,10.18
2017-12-31T05:26:49.814Z,9.13
2017-12-31T05:27:52.288Z,8.95
2017-12-31T05:28:54.757Z,9.02
2017-12-31T05:29:57.243Z,8.95
2017-12-31T05:31:00.510Z,8.98
2017-12-31T05:32:03.914Z,8.60
2017-12-31T05:33:07.165Z,8.85
2017-12-31T05:34:09.658Z,9.40
2017-12-31T05:35:12.835Z,8.77
2017-12-31T05:36:15.337Z,8.32
2017-12-31T05:37:18.572Z,8.05
2017-12-31T05:38:21.650Z,8.35
2017-12-31T05:39:24.108Z,8.20
2017-12-31T05:40:26.590Z,7.45
2017-12-31T05:41:29.093Z,8.23
2017-12-31T05:42:32.409Z,8.10
2017-12-31T05:43:35.656Z,8.63
2017-12-31T05:44:39.092Z,8.85
2017-12-31T05:45:42.375Z,9.75
2017-12-31T05:46:44.892Z,7.70
2017-12-31T05:47:47.356Z,8.10
2017-12-31T05:48:49.874Z,9.75
2017-12-31T05:49:52.354Z,8.50
2017-12-31T05:50:54.835Z,8.40
2017-12-31T05:51:57.426Z,9.15
2017-12-31T05:52:59.917Z,9.45
2017-12-31T05:54:02.404Z,8.77
2017-12-31T05:55:04.889Z,8.52
2017-12-31T05:56:07.408Z,8.70
2017-12-31T05:57:09.966Z,8.40
2017-12-31T05:58:13.215Z,9.45
2017-12-31T05:59:15.687Z,9.52
2017-12-31T06:00:18.165Z,8.13
2017-12-31T06:01:20.638Z,8.10
2017-12-31T06:02:23.140Z,8.02
2017-12-31T06:03:25.648Z,8.18
2017-12-31T06:04:28.141Z,6.43
2017-12-31T06:05:30.667Z,7.15
2017-12-31T06:06:33.147Z,8.02
2017-12-31T06:07:35.657Z,7.72
2017-12-31T06:08:38.131Z,7.32
2017-12-31T06:09:40.622Z,6.85
2017-12-31T06:10:43.882Z,7.20
2017-12-31T06:11:46.357Z,6.65
2017-12-31T06:12:48.858Z,6.95
2017-12-31T06:13:51.358Z,6.53
2017-12-31T06:14:53.848Z,6.65
2017-12-31T06:15:56.321Z,5.93
2017-12-31T06:16:58.805Z,6.30
2017-12-31T06:18:01.294Z,6.70
2017-12-31T06:19:04.551Z,6.25
2017-12-31T06:20:07.021Z,7.03
2017-12-31T06:21:09.499Z,6.32
2017-12-31T06:22:11.996Z,6.28
2017-12-31T06:23:15.258Z,5.85
2017-12-31T06:24:17.739Z,5.85
2017-12-31T06:25:20.263Z,5.50
2017-12-31T06:26:22.739Z,5.85
2017-12-31T06:27:25.226Z,5.37
2017-12-31T06:28:27.722Z,5.35
2017-12-31T06:29:30.217Z,5.57
2017-12-31T06:30:33.464Z,4.80
2017-12-31T06:31:35.933Z,5.20
2017-12-31T06:32:38.424Z,5.32
2017-12-31T06:33:40.909Z,4.87
2017-12-31T06:34:44.156Z,4.45
2017-12-31T06:35:46.692Z,5.18
2017-12-31T06:36:49.171Z,6.35
2017-12-31T06:37:51.665Z,4.30
2017-12-31T06:38:54.174Z,6.00
2017-12-31T06:39:57.421Z,5.00
2017-12-31T06:41:00.638Z,5.70
2017-12-31T06:42:03.192Z,4.75
2017-12-31T06:43:05.681Z,5.53
2017-12-31T06:44:08.964Z,5.85
2017-12-31T06:45:11.452Z,6.03
2017-12-31T06:46:13.937Z,6.35
2017-12-31T06:47:16.406Z,7.32
2017-12-31T06:48:18.895Z,5.85
2017-12-31T06:49:22.157Z,6.57
2017-12-31T06:50:25.431Z,6.28
2017-12-31T06:51:27.912Z,6.20
2017-12-31T06:52:31.153Z,7.03
2017-12-31T06:53:33.634Z,7.35
2017-12-31T06:54:36.124Z,7.00
2017-12-31T06:55:38.676Z,8.45
2017-12-31T06:56:41.159Z,7.55
2017-12-31T06:57:43.627Z,6.72
2017-12-31T06:58:46.109Z,6.87
2017-12-31T06:59:51.533Z,7.12
2017-12-31T07:00:54.028Z,7.03
2017-12-31T07:01:57.292Z,7.85
2017-12-31T07:02:59.773Z,6.97
2017-12-31T07:04:02.258Z,7.47
2017-12-31T07:05:05.524Z,7.53
2017-12-31T07:06:08.024Z,7.85
2017-12-31T07:07:11.396Z,6.87
2017-12-31T07:08:13.881Z,8.57
2017-12-31T07:09:16.362Z,6.82
2017-12-31T07:10:18.918Z,6.90
2017-12-31T07:11:22.120Z,6.20
2017-12-31T07:12:24.602Z,7.55
2017-12-31T07:13:27.854Z,7.20
2017-12-31T07:14:30.326Z,6.40
2017-12-31T07:15:32.812Z,6.15
2017-12-31T07:16:36.063Z,6.68
2017-12-31T07:17:38.555Z,5.80
2017-12-31T07:18:41.054Z,6.20
2017-12-31T07:32:43.560Z,4.68
2017-12-31T07:33:46.071Z,4.90
2017-12-31T07:34:48.571Z,5.43
2017-12-31T07:35:51.047Z,4.68
2017-12-31T07:36:53.523Z,3.85
2017-12-31T07:37:56.015Z,4.55
2017-12-31T07:38:58.525Z,6.32
2017-12-31T07:40:01.002Z,4.47
2017-12-31T07:41:04.047Z,4.40
2017-12-31T07:42:07.300Z,4.47
2017-12-31T07:43:09.786Z,5.40
2017-12-31T07:44:13.966Z,4.65
2017-12-31T07:45:16.473Z,4.55
2017-12-31T07:46:19.732Z,4.60
2017-12-31T07:47:22.193Z,4.72
2017-12-31T07:48:24.684Z,4.75
2017-12-31T07:49:27.169Z,4.10
2017-12-31T07:50:30.416Z,5.30
2017-12-31T07:51:32.973Z,5.00
2017-12-31T07:52:35.462Z,4.62
2017-12-31T07:53:37.955Z,4.32
2017-12-31T07:54:40.460Z,5.55
2017-12-31T07:55:42.939Z,3.92
2017-12-31T07:56:45.417Z,5.32
2017-12-31T07:57:47.891Z,5.55
2017-12-31T07:58:50.363Z,4.75
2017-12-31T07:59:52.864Z,7.15
2017-12-31T08:00:55.352Z,3.95
2017-12-31T08:01:57.831Z,4.10
2017-12-31T08:03:01.369Z,4.20
2017-12-31T08:04:03.868Z,3.20
2017-12-31T08:05:06.392Z,4.20
2017-12-31T08:06:08.905Z,3.80
2017-12-31T08:07:12.552Z,3.85
2017-12-31T08:08:15.793Z,3.67
2017-12-31T08:09:18.287Z,5.15
2017-12-31T08:10:20.777Z,4.57
2017-12-31T08:11:23.272Z,4.43
2017-12-31T08:12:25.758Z,4.40
2017-12-31T08:13:28.233Z,4.10
2017-12-31T08:14:30.708Z,3.87
2017-12-31T08:15:33.351Z,2.83
2017-12-31T08:16:35.843Z,3.55
2017-12-31T08:17:38.341Z,3.72
2017-12-31T08:18:41.994Z,3.97
2017-12-31T08:19:44.507Z,5.35
2017-12-31T08:20:47.000Z,4.80
2017-12-31T08:21:50.261Z,5.05
2017-12-31T08:22:53.667Z,3.55
2017-12-31T08:23:56.152Z,3.33
2017-12-31T08:25:00.057Z,3.45
2017-12-31T08:26:02.539Z,3.47
2017-12-31T08:27:05.041Z,3.35
2017-12-31T08:28:07.517Z,3.72
2017-12-31T08:29:10.166Z,3.60
2017-12-31T08:30:12.725Z,3.67
2017-12-31T08:31:15.966Z,4.25
2017-12-31T08:32:18.479Z,4.72
2017-12-31T08:33:20.977Z,4.25
2017-12-31T08:34:23.583Z,3.50
2017-12-31T08:35:26.064Z,4.20
2017-12-31T08:36:28.552Z,3.25
2017-12-31T08:37:31.828Z,3.78
2017-12-31T08:38:34.316Z,4.53
2017-12-31T08:39:37.572Z,3.70
2017-12-31T08:40:40.064Z,3.22
2017-12-31T08:41:42.560Z,3.03
2017-12-31T08:42:45.064Z,3.95
2017-12-31T08:43:47.548Z,3.15
2017-12-31T08:44:50.014Z,3.28
2017-12-31T08:45:53.220Z,3.50
2017-12-31T08:46:55.711Z,4.03
2017-12-31T08:47:58.978Z,3.05
2017-12-31T08:49:01.487Z,3.92
2017-12-31T08:50:04.214Z,3.78
2017-12-31T08:51:06.707Z,3.20
2017-12-31T08:52:09.216Z,3.95
2017-12-31T08:53:12.729Z,3.95
2017-12-31T08:54:15.214Z,3.60
2017-12-31T08:55:17.699Z,3.62
2017-12-31T08:56:20.198Z,3.55
2017-12-31T08:57:23.425Z,2.92
2017-12-31T08:58:25.954Z,3.75
2017-12-31T08:59:29.198Z,4.30
2017-12-31T09:00:35.538Z,4.47
2017-12-31T09:01:38.018Z,5.10
2017-12-31T09:02:40.529Z,3.22
2017-12-31T09:03:43.044Z,3.58
2017-12-31T09:04:45.542Z,4.65
2017-12-31T09:05:48.021Z,3.65
2017-12-31T09:06:51.094Z,2.75
2017-12-31T09:07:53.616Z,3.17
2017-12-31T09:08:57.119Z,3.05
2017-12-31T09:10:00.373Z,3.15
2017-12-31T09:11:02.851Z,3.03
2017-12-31T09:12:06.536Z,3.25
2017-12-31T09:13:09.164Z,3.28
2017-12-31T09:14:15.219Z,3.10
2017-12-31T09:15:21.720Z,3.10
2017-12-31T09:16:24.416Z,3.00
2017-12-31T09:17:26.910Z,3.00
2017-12-31T09:18:29.435Z,3.05
2017-12-31T09:19:31.957Z,2.72
2017-12-31T09:20:35.225Z,2.78
2017-12-31T09:21:37.738Z,2.75
2017-12-31T09:22:40.995Z,2.85
2017-12-31T09:23:44.250Z,3.10
2017-12-31T09:24:47.350Z,3.75
2017-12-31T09:25:56.656Z,3.10
2017-12-31T09:26:59.181Z,3.50
2017-12-31T09:28:01.707Z,2.40
2017-12-31T09:29:04.176Z,2.20
2017-12-31T09:30:06.672Z,3.35
2017-12-31T09:31:09.192Z,2.90
2017-12-31T09:32:12.425Z,2.17
2017-12-31T09:33:14.922Z,2.50
2017-12-31T09:34:17.405Z,2.60
2017-12-31T09:35:20.721Z,3.00
2017-12-31T09:36:23.256Z,2.20
2017-12-31T09:37:25.767Z,3.35
2017-12-31T09:38:29.086Z,3.00
2017-12-31T09:39:31.579Z,2.90
2017-12-31T09:40:34.048Z,2.78
2017-12-31T09:41:36.769Z,2.50
2017-12-31T09:42:39.311Z,2.75
2017-12-31T09:43:41.784Z,2.87
2017-12-31T09:44:45.043Z,3.15
2017-12-31T09:45:47.542Z,2.65
2017-12-31T09:46:50.835Z,3.22
2017-12-31T09:47:54.106Z,2.87
2017-12-31T09:48:56.581Z,2.72
2017-12-31T09:49:59.087Z,3.83
2017-12-31T09:51:02.345Z,2.80
2017-12-31T09:52:04.858Z,2.55
2017-12-31T09:53:07.332Z,2.95
2017-12-31T09:54:11.491Z,3.28
2017-12-31T09:55:14.029Z,3.85
2017-12-31T09:56:17.290Z,3.00
2017-12-31T09:57:20.888Z,2.62
2017-12-31T09:58:23.404Z,2.65
2017-12-31T09:59:25.914Z,2.47
2017-12-31T10:00:28.428Z,3.25
2017-12-31T10:01:30.928Z,2.85
2017-12-31T10:02:33.458Z,3.00
2017-12-31T10:03:35.978Z,2.53
2017-12-31T10:04:39.292Z,3.00
2017-12-31T10:05:42.061Z,2.62
2017-12-31T10:06:44.591Z,2.50
2017-12-31T10:07:47.678Z,2.50
2017-12-31T10:08:51.240Z,2.58
2017-12-31T10:09:53.729Z,2.83
2017-12-31T10:10:56.673Z,2.20
2017-12-31T10:11:59.647Z,2.50
2017-12-31T10:13:02.920Z,2.08
2017-12-31T10:14:05.397Z,2.58
2017-12-31T10:15:08.676Z,2.22
2017-12-31T10:16:12.669Z,3.00
2017-12-31T10:17:15.155Z,1.92
2017-12-31T10:18:18.438Z,2.42
2017-12-31T10:19:20.936Z,2.30
2017-12-31T10:20:23.478Z,3.08
2017-12-31T10:21:26.778Z,2.45
2017-12-31T10:22:30.027Z,2.40
2017-12-31T10:23:32.499Z,2.37
2017-12-31T10:24:35.025Z,2.03
2017-12-31T10:25:37.503Z,2.42
2017-12-31T10:26:39.999Z,2.22
2017-12-31T10:27:43.448Z,2.35
2017-12-31T10:28:46.715Z,2.45
2017-12-31T10:29:49.225Z,3.15
2017-12-31T10:30:51.687Z,2.65
2017-12-31T10:31:54.162Z,2.83
2017-12-31T10:32:56.639Z,2.40
2017-12-31T10:33:59.161Z,2.45
2017-12-31T10:35:01.671Z,2.40
2017-12-31T10:36:04.160Z,2.90
2017-12-31T10:37:06.678Z,2.22
2017-12-31T10:38:09.240Z,2.55
2017-12-31T10:39:12.048Z,2.42
2017-12-31T10:40:15.330Z,2.30
2017-12-31T10:41:18.607Z,1.92
2017-12-31T10:42:21.075Z,3.70
2017-12-31T10:43:24.516Z,2.35
2017-12-31T10:44:27.015Z,3.15
2017-12-31T10:45:29.527Z,3.08
2017-12-31T10:46:32.805Z,2.58
2017-12-31T10:47:35.402Z,2.47
2017-12-31T10:48:37.930Z,2.53
2017-12-31T10:49:40.444Z,2.60
2017-12-31T10:50:42.918Z,3.05
2017-12-31T10:51:45.478Z,2.70
2017-12-31T10:52:48.738Z,2.35
2017-12-31T10:53:51.275Z,2.20
2017-12-31T10:54:53.794Z,2.70
2017-12-31T10:55:57.057Z,2.40
2017-12-31T10:56:59.575Z,2.22
2017-12-31T10:58:02.833Z,2.35
2017-12-31T10:59:05.349Z,2.15
2017-12-31T11:00:07.860Z,2.10
2017-12-31T11:01:11.190Z,2.58
2017-12-31T11:02:13.751Z,2.35
2017-12-31T11:03:16.228Z,3.33
2017-12-31T11:04:27.060Z,2.67
2017-12-31T11:05:29.594Z,1.95
2017-12-31T11:06:32.888Z,3.10
2017-12-31T11:07:35.510Z,2.65
2017-12-31T11:08:38.015Z,2.00
2017-12-31T11:09:41.294Z,2.12
2017-12-31T11:10:44.641Z,2.40
2017-12-31T11:11:47.237Z,2.28
2017-12-31T11:12:50.124Z,1.95
2017-12-31T11:13:52.698Z,2.20
2017-12-31T11:14:55.176Z,2.62
2017-12-31T11:15:57.649Z,1.87
2017-12-31T11:17:00.144Z,2.70
2017-12-31T11:18:02.675Z,3.08
2017-12-31T11:19:05.178Z,2.15
2017-12-31T11:20:09.112Z,2.40
2017-12-31T11:21:12.906Z,3.12
2017-12-31T11:22:15.426Z,3.00
2017-12-31T11:23:18.283Z,2.40
2017-12-31T11:24:20.948Z,2.42
2017-12-31T11:25:24.939Z,1.98
2017-12-31T11:26:27.558Z,2.05
2017-12-31T11:27:30.370Z,2.80
2017-12-31T11:28:34.894Z,3.05
2017-12-31T11:29:37.503Z,1.80
2017-12-31T11:30:40.271Z,2.50
2017-12-31T11:31:45.660Z,2.22
2017-12-31T11:32:49.551Z,2.30
2017-12-31T11:33:52.095Z,2.45
2017-12-31T11:34:55.142Z,2.62
2017-12-31T11:35:57.624Z,3.05
2017-12-31T11:37:00.931Z,2.33
2017-12-31T11:38:04.188Z,2.33
2017-12-31T11:39:06.681Z,1.92
2017-12-31T11:40:09.173Z,1.98
2017-12-31T11:41:11.801Z,1.50
2017-12-31T11:42:15.028Z,2.40
2017-12-31T11:43:17.567Z,2.00
2017-12-31T11:44:20.073Z,2.00
2017-12-31T11:45:22.567Z,2.60
2017-12-31T11:46:25.077Z,2.20
2017-12-31T11:47:27.547Z,2.20
2017-12-31T11:48:30.077Z,2.33
2017-12-31T11:49:32.555Z,2.37
2017-12-31T11:50:35.064Z,2.00
2017-12-31T11:51:37.539Z,2.22
2017-12-31T11:52:42.604Z,2.33
2017-12-31T11:53:45.125Z,1.87
2017-12-31T11:54:47.621Z,2.20
2017-12-31T11:55:50.888Z,2.20
2017-12-31T11:56:53.398Z,2.65
2017-12-31T11:57:55.885Z,1.75
2017-12-31T11:58:58.373Z,2.20
2017-12-31T12:00:00.878Z,2.92
2017-12-31T12:01:03.363Z,3.33
2017-12-31T12:02:06.633Z,2.53
2017-12-31T12:03:09.166Z,1.90
2017-12-31T12:04:11.834Z,1.90
2017-12-31T12:05:14.322Z,1.70
2017-12-31T12:06:16.821Z,2.05
2017-12-31T12:07:19.907Z,2.45
2017-12-31T12:08:22.396Z,2.37
2017-12-31T12:09:26.057Z,2.00
2017-12-31T12:10:28.597Z,1.75
2017-12-31T12:11:31.099Z,2.28
2017-12-31T12:12:33.651Z,1.77
2017-12-31T12:13:37.197Z,2.00
2017-12-31T12:14:39.758Z,2.33
2017-12-31T12:15:43.021Z,2.00
2017-12-31T12:16:45.506Z,1.95
2017-12-31T12:17:48.060Z,2.60
2017-12-31T12:18:50.532Z,2.33
2017-12-31T12:19:53.006Z,2.00
2017-12-31T12:20:55.502Z,2.20
2017-12-31T12:21:58.768Z,1.95
2017-12-31T12:23:01.267Z,2.65
2017-12-31T12:24:03.771Z,2.25
2017-12-31T12:25:06.281Z,2.00
2017-12-31T12:26:08.783Z,1.85
2017-12-31T12:27:11.566Z,1.98
2017-12-31T12:28:14.066Z,1.80
2017-12-31T12:29:16.547Z,2.37
2017-12-31T12:30:19.072Z,1.90
2017-12-31T12:31:21.579Z,2.15
2017-12-31T12:32:24.063Z,1.90
2017-12-31T12:33:26.572Z,1.70
2017-12-31T12:34:29.061Z,1.90
2017-12-31T12:35:32.312Z,2.10
2017-12-31T12:36:34.821Z,2.40
2017-12-31T12:37:38.098Z,2.28
2017-12-31T12:38:41.347Z,1.90
2017-12-31T12:39:43.833Z,1.70
2017-12-31T12:40:46.308Z,2.00
2017-12-31T12:41:48.829Z,1.83
2017-12-31T12:42:51.323Z,1.58
2017-12-31T12:43:54.747Z,1.62
2017-12-31T12:44:57.216Z,1.60
2017-12-31T12:45:59.721Z,1.58
2017-12-31T12:47:02.236Z,2.00
2017-12-31T12:48:04.719Z,2.12
2017-12-31T12:49:07.227Z,2.50
2017-12-31T12:50:09.985Z,1.95
2017-12-31T12:51:17.089Z,1.60
2017-12-31T12:52:19.656Z,1.65
2017-12-31T12:53:22.152Z,1.67
2017-12-31T12:54:24.683Z,1.50
2017-12-31T12:55:27.931Z,1.75
2017-12-31T12:56:30.428Z,2.12
2017-12-31T12:57:33.808Z,2.33
2017-12-31T12:58:36.312Z,1.75
2017-12-31T12:59:39.797Z,2.00
2017-12-31T13:00:43.048Z,1.90
2017-12-31T13:01:45.518Z,2.03
2017-12-31T13:02:48.268Z,2.42
2017-12-31T13:03:50.753Z,1.45
2017-12-31T13:04:53.244Z,1.80
2017-12-31T13:05:55.761Z,1.95
2017-12-31T13:06:58.260Z,2.45
2017-12-31T13:08:00.765Z,2.25
2017-12-31T13:09:03.985Z,1.90
2017-12-31T13:10:06.497Z,1.30
2017-12-31T13:11:09.874Z,1.80
2017-12-31T13:12:13.197Z,1.62
2017-12-31T13:13:15.700Z,1.50
2017-12-31T13:14:18.184Z,2.12
2017-12-31T13:15:20.707Z,1.30
2017-12-31T13:16:23.280Z,2.70
2017-12-31T13:17:25.769Z,2.17
2017-12-31T13:18:29.041Z,1.65
2017-12-31T13:19:31.627Z,1.80
2017-12-31T13:20:34.879Z,2.08
2017-12-31T13:21:37.392Z,2.05
2017-12-31T13:22:39.871Z,2.12
2017-12-31T13:23:43.133Z,1.70
2017-12-31T13:24:45.653Z,1.95
2017-12-31T13:25:48.197Z,1.80
2017-12-31T13:26:52.776Z,1.65
2017-12-31T13:27:56.017Z,1.70
2017-12-31T13:29:00.073Z,2.78
2017-12-31T13:30:02.811Z,2.08
2017-12-31T13:31:05.650Z,2.12
2017-12-31T13:32:08.199Z,2.03
2017-12-31T13:33:12.182Z,2.03
2017-12-31T13:34:14.718Z,1.80
2017-12-31T13:35:17.990Z,1.50
2017-12-31T13:36:20.738Z,2.22
2017-12-31T13:37:23.216Z,2.10
2017-12-31T13:38:25.715Z,2.00
2017-12-31T13:39:29.019Z,2.10
2017-12-31T13:40:32.286Z,1.80
2017-12-31T13:41:35.590Z,2.00
2017-12-31T13:42:38.894Z,1.67
2017-12-31T13:43:41.445Z,2.80
2017-12-31T13:44:45.294Z,1.90
2017-12-31T13:45:47.831Z,1.80
2017-12-31T13:46:51.118Z,2.10
2017-12-31T13:47:55.315Z,2.00
2017-12-31T13:48:57.805Z,2.20
2017-12-31T13:50:00.287Z,1.85
2017-12-31T13:51:02.792Z,1.40
2017-12-31T13:52:06.128Z,1.58
2017-12-31T13:53:09.460Z,1.75
2017-12-31T13:54:12.177Z,1.58
2017-12-31T13:55:15.498Z,2.40
2017-12-31T13:56:18.031Z,2.12
2017-12-31T13:57:20.524Z,2.03
2017-12-31T13:58:29.825Z,1.90
2017-12-31T13:59:33.902Z,1.55
2017-12-31T14:00:36.423Z,1.75
2017-12-31T14:01:41.454Z,1.75
2017-12-31T14:02:45.611Z,1.70
2017-12-31T14:03:49.970Z,1.95
2017-12-31T14:04:53.861Z,1.92
2017-12-31T14:05:56.352Z,2.00
2017-12-31T14:06:58.831Z,2.45